createdAt,value
2018-09-14T00:00:35.174Z,11.63
2018-09-14T00:03:04.522Z,15.30
2018-09-14T00:05:33.386Z,13.77
2018-09-14T00:08:02.452Z,20.50
2018-09-14T00:10:30.995Z,11.40
2018-09-14T00:12:59.526Z,12.67
2018-09-14T00:15:28.126Z,10.63
2018-09-14T00:17:56.687Z,10.30
2018-09-14T00:20:25.453Z,18.53
2018-09-14T00:22:53.944Z,18.87
2018-09-14T00:25:22.487Z,19.37
2018-09-14T00:27:50.996Z,18.17
2018-09-14T00:30:19.584Z,13.30
2018-09-14T00:32:48.125Z,18.67
2018-09-14T00:35:16.895Z,17.07
2018-09-14T00:37:45.566Z,13.80
2018-09-14T00:40:16.615Z,16.97
2018-09-14T00:42:45.122Z,20.93
2018-09-14T00:45:13.663Z,17.50
2018-09-14T00:47:42.179Z,20.93
2018-09-14T00:50:10.922Z,15.67
2018-09-14T00:52:39.488Z,23.13
2018-09-14T00:55:08.039Z,21.97
2018-09-14T00:57:36.656Z,20.40
2018-09-14T01:00:05.613Z,19.77
2018-09-14T01:02:34.368Z,20.00
2018-09-14T01:05:03.120Z,18.87
2018-09-14T01:07:32.065Z,30.60
2018-09-14T01:10:01.116Z,16.97
2018-09-14T01:12:29.623Z,17.30
2018-09-14T01:14:58.143Z,20.50
2018-09-14T01:17:26.750Z,24.43
2018-09-14T01:19:55.700Z,20.03
2018-09-14T01:22:24.182Z,19.00
2018-09-14T01:24:53.004Z,20.57
2018-09-14T01:27:21.525Z,25.40
2018-09-14T01:29:50.094Z,24.83
2018-09-14T01:32:19.379Z,24.73
2018-09-14T01:34:47.898Z,22.10
2018-09-14T01:37:16.359Z,21.60
2018-09-14T01:39:45.055Z,27.90
2018-09-14T01:42:13.529Z,24.40
2018-09-14T01:44:42.050Z,24.00
2018-09-14T01:47:10.546Z,22.23
2018-09-14T01:49:39.204Z,20.70
2018-09-14T01:52:08.447Z,19.73
2018-09-14T01:54:37.089Z,26.70
2018-09-14T01:57:05.751Z,21.27
2018-09-14T01:59:34.287Z,18.77
2018-09-14T02:02:03.058Z,21.43
2018-09-14T02:04:31.625Z,22.20
2018-09-14T02:07:00.338Z,19.67
2018-09-14T02:09:28.867Z,20.77
2018-09-14T02:11:57.350Z,28.60
2018-09-14T02:14:25.878Z,24.73
2018-09-14T02:16:54.349Z,31.60
2018-09-14T02:19:23.150Z,26.50
2018-09-14T02:21:51.646Z,31.10
2018-09-14T02:24:20.175Z,26.27
2018-09-14T02:26:48.650Z,28.80
2018-09-14T02:29:17.762Z,24.83
2018-09-14T02:31:46.282Z,27.50
2018-09-14T02:34:14.799Z,27.07
2018-09-14T02:36:43.270Z,21.70
2018-09-14T02:39:11.789Z,25.33
2018-09-14T02:41:40.278Z,28.03
2018-09-14T02:44:08.787Z,24.97
2018-09-14T02:46:37.456Z,35.23
2018-09-14T02:49:06.250Z,29.70
2018-09-14T02:51:34.972Z,27.40
2018-09-14T02:54:03.566Z,27.33
2018-09-14T02:56:32.073Z,32.60
2018-09-14T02:59:00.587Z,48.87
2018-09-14T03:01:29.130Z,41.60
2018-09-14T03:03:57.771Z,33.57
2018-09-14T03:06:26.282Z,32.33
2018-09-14T03:08:54.807Z,31.90
2018-09-14T03:11:23.298Z,27.50
2018-09-14T03:13:51.871Z,26.70
2018-09-14T03:16:20.381Z,32.90
2018-09-14T03:18:48.918Z,45.53
2018-09-14T03:21:17.603Z,34.43
2018-09-14T03:23:46.108Z,50.67
2018-09-14T03:26:15.486Z,36.43
2018-09-14T03:28:44.145Z,42.10
2018-09-14T03:31:12.631Z,47.80
2018-09-14T03:33:41.532Z,38.00
2018-09-14T03:36:10.067Z,46.00
2018-09-14T03:38:38.786Z,47.40
2018-09-14T03:41:07.651Z,56.80
2018-09-14T03:43:36.143Z,55.67
2018-09-14T03:46:04.688Z,49.40
2018-09-14T03:48:33.181Z,46.67
2018-09-14T03:51:01.747Z,52.47
2018-09-14T03:53:30.237Z,37.00
2018-09-14T03:56:01.216Z,45.03
2018-09-14T03:58:29.820Z,37.23
2018-09-14T04:00:58.389Z,42.80
2018-09-14T04:03:26.916Z,64.73
2018-09-14T04:05:55.428Z,59.47
2018-09-14T04:08:23.977Z,48.13
2018-09-14T04:10:52.486Z,66.53
2018-09-14T04:13:21.680Z,47.83
2018-09-14T04:15:50.199Z,52.73
2018-09-14T04:18:18.759Z,60.90
2018-09-14T04:20:47.449Z,48.20
2018-09-14T04:23:16.201Z,42.93
2018-09-14T04:25:44.950Z,48.07
2018-09-14T04:28:13.500Z,37.53
2018-09-14T04:30:42.164Z,34.53
2018-09-14T04:33:11.049Z,49.30
2018-09-14T04:35:39.666Z,37.70
2018-09-14T04:38:08.528Z,44.97
2018-09-14T04:40:37.060Z,44.83
2018-09-14T04:43:05.536Z,48.23
2018-09-14T04:45:34.214Z,38.20
2018-09-14T04:48:02.792Z,40.87
2018-09-14T04:50:31.322Z,45.93
2018-09-14T04:53:00.029Z,47.73
2018-09-14T04:55:28.612Z,48.67
2018-09-14T04:57:57.207Z,36.77
2018-09-14T05:00:25.771Z,36.87
2018-09-14T05:02:54.533Z,36.40
2018-09-14T05:05:23.095Z,34.80
2018-09-14T05:07:51.617Z,35.10
2018-09-14T05:10:20.798Z,25.20
2018-09-14T05:12:49.311Z,25.40
2018-09-14T05:15:17.851Z,26.13
2018-09-14T05:17:46.984Z,24.80
2018-09-14T05:20:15.880Z,32.50
2018-09-14T05:22:44.382Z,26.77
2018-09-14T05:25:13.206Z,29.40
2018-09-14T05:27:42.537Z,28.10
2018-09-14T05:30:11.074Z,35.83
2018-09-14T05:32:39.670Z,31.80
2018-09-14T05:35:08.245Z,29.87
2018-09-14T05:37:36.873Z,28.17
2018-09-14T05:40:06.111Z,26.90
2018-09-14T05:42:34.825Z,31.40
2018-09-14T05:45:03.390Z,30.27
2018-09-14T05:47:31.927Z,31.70
2018-09-14T05:50:00.510Z,25.90
2018-09-14T05:52:29.018Z,39.67
2018-09-14T05:54:57.688Z,29.03
2018-09-14T05:57:26.621Z,33.50
2018-09-14T05:59:57.118Z,33.40
2018-09-14T06:02:25.963Z,28.93
2018-09-14T06:04:54.886Z,29.67
2018-09-14T06:07:23.799Z,28.70
2018-09-14T06:09:52.459Z,32.23
2018-09-14T06:12:21.013Z,36.33
2018-09-14T06:14:49.491Z,34.00
2018-09-14T06:17:18.343Z,28.50
2018-09-14T06:19:47.138Z,32.90
2018-09-14T06:22:16.289Z,26.60
2018-09-14T06:24:44.805Z,30.13
2018-09-14T06:27:13.361Z,30.13
2018-09-14T06:29:41.830Z,23.67
2018-09-14T06:32:10.766Z,23.67
2018-09-14T06:34:39.285Z,29.27
2018-09-14T06:37:07.845Z,43.47
2018-09-14T06:39:36.430Z,20.47
2018-09-14T06:42:04.942Z,20.40
2018-09-14T06:44:33.463Z,16.60
2018-09-14T06:47:01.960Z,21.33
2018-09-14T06:49:30.521Z,27.37
2018-09-14T06:51:59.041Z,16.00
2018-09-14T06:54:29.620Z,19.23
2018-09-14T06:56:58.076Z,22.20
2018-09-14T06:59:26.594Z,30.00
2018-09-14T07:01:55.159Z,17.73
2018-09-14T07:04:23.661Z,20.37
2018-09-14T07:06:52.519Z,16.93
2018-09-14T07:09:21.126Z,17.23
2018-09-14T07:11:49.704Z,13.87
2018-09-14T07:14:18.278Z,15.10
2018-09-14T07:16:47.242Z,20.67
2018-09-14T07:19:16.321Z,18.07
2018-09-14T07:21:44.916Z,17.43
2018-09-14T07:24:13.486Z,13.60
2018-09-14T07:26:42.107Z,22.00
2018-09-14T07:29:10.741Z,19.70
2018-09-14T07:31:39.400Z,17.23
2018-09-14T07:34:07.835Z,17.70
2018-09-14T07:36:36.500Z,20.27
2018-09-14T07:39:07.453Z,20.83
2018-09-14T07:41:36.098Z,19.43
2018-09-14T07:44:04.973Z,17.20
2018-09-14T07:46:33.492Z,18.90
2018-09-14T07:49:01.993Z,20.93
2018-09-14T07:51:32.854Z,22.43
2018-09-14T07:54:01.358Z,20.47
2018-09-14T07:56:29.972Z,20.33
2018-09-14T07:58:58.830Z,19.00
2018-09-14T08:01:27.376Z,19.63
2018-09-14T08:03:55.990Z,17.63
2018-09-14T08:06:24.549Z,22.57
2018-09-14T08:08:53.090Z,22.60
2018-09-14T08:11:21.581Z,22.83
2018-09-14T08:13:50.950Z,21.80
2018-09-14T08:16:20.062Z,19.43
2018-09-14T08:18:48.776Z,21.73
2018-09-14T08:21:17.311Z,23.03
2018-09-14T08:23:46.632Z,25.77
2018-09-14T08:26:15.365Z,24.60
2018-09-14T08:28:44.109Z,25.20
2018-09-14T08:31:12.811Z,21.10
2018-09-14T08:33:41.352Z,16.77
2018-09-14T08:36:10.475Z,19.30
2018-09-14T08:38:39.023Z,19.33
2018-09-14T08:41:09.192Z,13.17
2018-09-14T08:43:37.673Z,22.33
2018-09-14T08:46:06.487Z,27.33
2018-09-14T08:48:35.216Z,16.73
2018-09-14T08:51:03.741Z,18.10
2018-09-14T08:53:32.438Z,20.03
2018-09-14T08:56:01.539Z,19.13
2018-09-14T08:58:30.182Z,12.83
2018-09-14T09:00:58.957Z,21.33
2018-09-14T09:03:27.611Z,22.00
2018-09-14T09:05:56.156Z,20.20
2018-09-14T09:08:24.651Z,19.03
2018-09-14T09:10:53.408Z,15.80
2018-09-14T09:13:22.646Z,19.93
2018-09-14T09:15:51.310Z,17.53
2018-09-14T09:18:19.874Z,14.43
2018-09-14T09:20:48.467Z,19.13
2018-09-14T09:23:18.209Z,18.80
2018-09-14T09:25:48.927Z,22.30
2018-09-14T09:28:17.432Z,15.90
2018-09-14T09:30:46.169Z,21.30
2018-09-14T09:33:14.660Z,17.53
2018-09-14T09:35:43.227Z,20.30
2018-09-14T09:38:11.799Z,15.50
2018-09-14T09:40:40.284Z,18.77
2018-09-14T09:43:09.147Z,25.13
2018-09-14T09:45:37.593Z,17.20
2018-09-14T09:48:06.482Z,19.67
2018-09-14T09:50:34.996Z,22.23
2018-09-14T09:53:03.731Z,18.60
2018-09-14T09:55:32.208Z,20.13
2018-09-14T09:58:00.770Z,22.03
2018-09-14T10:00:35.280Z,20.07
2018-09-14T10:03:09.967Z,19.63
2018-09-14T10:05:43.823Z,15.37
2018-09-14T10:08:12.603Z,14.30
2018-09-14T10:10:41.116Z,12.17
2018-09-14T10:13:09.866Z,13.90
2018-09-14T10:15:38.375Z,17.80
2018-09-14T10:18:07.040Z,13.50
2018-09-14T10:20:35.883Z,14.70
2018-09-14T10:23:04.569Z,21.83
2018-09-14T10:25:33.336Z,14.10
2018-09-14T10:28:01.866Z,18.43
2018-09-14T10:30:30.414Z,16.73
2018-09-14T10:32:59.006Z,16.10
2018-09-14T10:35:27.491Z,14.50
2018-09-14T10:37:56.375Z,13.50
2018-09-14T10:40:25.273Z,13.47
2018-09-14T10:42:54.260Z,17.20
2018-09-14T10:45:23.267Z,11.50
2018-09-14T10:47:51.829Z,10.53
2018-09-14T10:50:20.722Z,10.83
2018-09-14T10:52:49.275Z,20.07
2018-09-14T10:55:18.596Z,10.93
2018-09-14T10:57:47.052Z,8.97
2018-09-14T11:00:16.145Z,10.00
2018-09-14T11:02:44.835Z,10.97
2018-09-14T11:05:13.327Z,13.30
2018-09-14T11:07:41.865Z,10.03
2018-09-14T11:10:10.450Z,13.60
2018-09-14T11:12:39.052Z,10.80
2018-09-14T11:15:07.606Z,9.90
2018-09-14T11:17:36.217Z,7.93
2018-09-14T11:20:05.397Z,11.30
2018-09-14T11:22:34.374Z,16.13
2018-09-14T11:25:03.562Z,7.53
2018-09-14T11:27:32.103Z,7.90
2018-09-14T11:30:00.610Z,10.13
2018-09-14T11:32:29.291Z,9.73
2018-09-14T11:34:58.302Z,9.53
2018-09-14T11:37:26.866Z,11.57
2018-09-14T11:39:56.362Z,12.70
2018-09-14T11:42:25.905Z,6.33
2018-09-14T11:44:54.396Z,10.33
2018-09-14T11:47:22.930Z,6.90
2018-09-14T11:49:51.452Z,9.30
2018-09-14T11:52:20.050Z,10.70
2018-09-14T11:54:48.612Z,7.57
2018-09-14T11:57:17.152Z,8.57
2018-09-14T11:59:45.859Z,10.10
2018-09-14T12:02:14.455Z,9.57
2018-09-14T12:04:42.987Z,12.73
2018-09-14T12:07:11.535Z,7.97
2018-09-14T12:09:40.143Z,10.73
2018-09-14T12:12:09.425Z,11.37
2018-09-14T12:14:37.951Z,9.50
2018-09-14T12:17:06.927Z,7.07
2018-09-14T12:19:35.727Z,11.07
2018-09-14T12:22:04.610Z,8.03
2018-09-14T12:24:33.311Z,8.40
2018-09-14T12:27:01.866Z,9.33
2018-09-14T12:29:30.387Z,8.90
2018-09-14T12:31:58.890Z,4.87
2018-09-14T12:34:27.875Z,8.53
2018-09-14T12:36:57.138Z,10.40
2018-09-14T12:39:25.688Z,8.70
2018-09-14T12:41:54.721Z,13.00
2018-09-14T12:44:23.299Z,7.33
2018-09-14T12:46:51.807Z,7.00
2018-09-14T12:49:20.446Z,6.10
2018-09-14T12:51:49.175Z,13.10
2018-09-14T12:54:17.712Z,8.47
2018-09-14T12:56:46.246Z,9.37
2018-09-14T12:59:14.778Z,5.77
2018-09-14T13:01:43.799Z,9.53
2018-09-14T13:04:12.440Z,18.13
2018-09-14T13:06:40.963Z,12.67
2018-09-14T13:09:11.210Z,11.60
2018-09-14T13:11:40.435Z,14.00
2018-09-14T13:14:09.559Z,9.23
2018-09-14T13:16:38.611Z,7.13
2018-09-14T13:19:07.458Z,13.13
2018-09-14T13:21:35.994Z,6.73
2018-09-14T13:24:11.116Z,9.97
2018-09-14T13:26:39.654Z,9.93
2018-09-14T13:29:08.210Z,10.23
2018-09-14T13:31:36.798Z,8.93
2018-09-14T13:34:05.947Z,12.73
2018-09-14T13:36:34.542Z,8.13
2018-09-14T13:39:03.175Z,9.87
2018-09-14T13:41:32.409Z,15.60
2018-09-14T13:44:01.026Z,6.50
2018-09-14T13:46:29.543Z,5.47
2018-09-14T13:48:58.107Z,11.07
2018-09-14T13:51:26.765Z,10.03
2018-09-14T13:53:55.467Z,15.73
2018-09-14T13:56:24.134Z,12.47
2018-09-14T13:58:52.742Z,11.80
2018-09-14T14:01:21.880Z,14.67
2018-09-14T14:03:50.669Z,9.30
2018-09-14T14:06:19.447Z,15.60
2018-09-14T14:08:47.996Z,8.93
2018-09-14T14:11:16.514Z,9.77
2018-09-14T14:13:45.663Z,4.80
2018-09-14T14:16:14.338Z,12.80
2018-09-14T14:18:43.054Z,7.43
2018-09-14T14:21:11.877Z,6.73
2018-09-14T14:23:40.918Z,6.83
2018-09-14T14:26:09.637Z,7.47
2018-09-14T14:28:39.074Z,7.97
2018-09-14T14:31:07.701Z,7.53
2018-09-14T14:33:36.232Z,14.23
2018-09-14T14:36:04.802Z,10.63
2018-09-14T14:38:33.332Z,9.23
2018-09-14T14:41:02.005Z,7.40
2018-09-14T14:43:30.546Z,7.60
2018-09-14T14:45:59.245Z,5.93
2018-09-14T14:48:27.895Z,13.77
2018-09-14T14:50:56.731Z,7.50
2018-09-14T14:53:25.306Z,8.70
2018-09-14T14:55:53.903Z,12.30
2018-09-14T14:58:22.414Z,8.47
2018-09-14T15:00:51.142Z,5.33
2018-09-14T15:03:19.793Z,16.93
2018-09-14T15:05:48.310Z,9.37
2018-09-14T15:08:16.831Z,8.53
2018-09-14T15:10:45.509Z,5.13
2018-09-14T15:13:14.607Z,11.57
2018-09-14T15:15:43.541Z,6.67
2018-09-14T15:18:13.131Z,7.00
2018-09-14T15:20:42.105Z,10.20
2018-09-14T15:23:10.659Z,11.67
2018-09-14T15:25:39.230Z,8.30
2018-09-14T15:28:07.986Z,7.77
2018-09-14T15:30:36.610Z,7.63
2018-09-14T15:33:05.140Z,8.67
2018-09-14T15:35:34.046Z,4.90
2018-09-14T15:38:03.001Z,7.33
2018-09-14T15:40:31.526Z,8.20
2018-09-14T15:43:00.016Z,9.77
2018-09-14T15:45:28.596Z,7.10
2018-09-14T15:47:57.236Z,8.20
2018-09-14T15:50:26.479Z,6.80
2018-09-14T15:52:55.141Z,9.00
2018-09-14T15:55:23.653Z,7.57
2018-09-14T15:57:52.415Z,10.83
2018-09-14T16:00:21.891Z,6.43
2018-09-14T16:02:52.197Z,6.80
2018-09-14T16:05:21.739Z,5.90
2018-09-14T16:07:50.873Z,14.13
2018-09-14T16:10:19.524Z,10.07
2018-09-14T16:12:48.191Z,11.70
2018-09-14T16:15:16.758Z,15.00
2018-09-14T16:17:45.514Z,9.50
2018-09-14T16:20:14.043Z,13.07
2018-09-14T16:22:42.523Z,6.83
2018-09-14T16:25:11.164Z,10.10
2018-09-14T16:27:40.295Z,7.37
2018-09-14T16:30:10.120Z,9.53
2018-09-14T16:32:38.880Z,7.90
2018-09-14T16:35:07.428Z,7.63
2018-09-14T16:37:35.987Z,13.07
2018-09-14T16:40:04.561Z,7.00
2018-09-14T16:42:33.111Z,7.50
2018-09-14T16:45:01.672Z,9.83
2018-09-14T16:47:31.176Z,10.70
2018-09-14T16:50:00.030Z,7.20
2018-09-14T16:52:28.573Z,11.93
2018-09-14T16:54:57.127Z,12.53
2018-09-14T16:57:26.217Z,7.57
2018-09-14T16:59:54.990Z,19.17
2018-09-14T17:02:23.546Z,9.63
2018-09-14T17:04:52.431Z,12.27
2018-09-14T17:07:21.015Z,10.87
2018-09-14T17:09:50.305Z,14.63
2018-09-14T17:12:19.326Z,10.63
2018-09-14T17:14:48.103Z,15.23
2018-09-14T17:17:16.630Z,10.50
2018-09-14T17:19:46.122Z,11.80
2018-09-14T17:22:14.636Z,7.87
2018-09-14T17:24:43.416Z,12.33
2018-09-14T17:27:12.170Z,7.30
2018-09-14T17:29:41.314Z,9.30
2018-09-14T17:32:09.889Z,8.57
2018-09-14T17:34:38.504Z,9.23
2018-09-14T17:37:13.333Z,8.40
2018-09-14T17:39:42.600Z,12.23
2018-09-14T17:42:11.177Z,5.77
2018-09-14T17:44:39.762Z,8.90
2018-09-14T17:47:08.274Z,9.03
2018-09-14T17:49:37.393Z,14.90
2018-09-14T17:52:06.066Z,10.50
2018-09-14T17:54:34.599Z,10.30
2018-09-14T17:57:03.466Z,10.30
2018-09-14T17:59:31.939Z,10.30
2018-09-14T18:02:00.504Z,9.50
2018-09-14T18:04:29.466Z,25.53
2018-09-14T18:06:58.051Z,17.70
2018-09-14T18:09:26.559Z,15.80
2018-09-14T18:11:55.121Z,18.67
2018-09-14T18:14:24.807Z,13.93
2018-09-14T18:16:54.335Z,11.80
2018-09-14T18:19:23.022Z,18.57
2018-09-14T18:21:51.948Z,15.50
2018-09-14T18:24:21.212Z,12.40
2018-09-14T18:26:49.749Z,13.17
2018-09-14T18:29:18.323Z,12.43
2018-09-14T18:31:46.927Z,16.40
2018-09-14T18:34:15.694Z,15.60
2018-09-14T18:36:44.207Z,12.30
2018-09-14T18:39:14.037Z,10.13
2018-09-14T18:41:43.043Z,13.67
2018-09-14T18:44:12.935Z,12.00
2018-09-14T18:46:41.552Z,12.00
2018-09-14T18:49:10.550Z,9.60
2018-09-14T18:51:39.668Z,17.43
2018-09-14T18:54:09.012Z,8.10
2018-09-14T18:56:37.562Z,10.80
2018-09-14T18:59:06.523Z,9.23
2018-09-14T19:01:34.991Z,10.80
2018-09-14T19:04:03.590Z,7.73
2018-09-14T19:06:32.134Z,10.83
2018-09-14T19:09:00.662Z,8.77
2018-09-14T19:11:29.194Z,9.27
2018-09-14T19:13:58.472Z,12.30
2018-09-14T19:16:27.649Z,9.80
2018-09-14T19:18:56.281Z,13.80
2018-09-14T19:21:24.799Z,13.63
2018-09-14T19:23:53.335Z,11.77
2018-09-14T19:26:22.158Z,16.73
2018-09-14T19:28:50.715Z,12.53
2018-09-14T19:31:19.340Z,12.20
2018-09-14T19:33:47.971Z,19.80
2018-09-14T19:36:16.649Z,20.30
2018-09-14T19:38:45.349Z,16.13
2018-09-14T19:41:14.933Z,14.83
2018-09-14T19:43:43.512Z,12.93
2018-09-14T19:46:12.810Z,13.77
2018-09-14T19:48:41.396Z,17.20
2018-09-14T19:51:10.564Z,24.07
2018-09-14T19:53:39.177Z,27.77
2018-09-14T19:56:07.738Z,34.80
2018-09-14T19:58:36.639Z,30.10
2018-09-14T20:01:05.516Z,34.30
2018-09-14T20:03:34.354Z,29.73
2018-09-14T20:06:02.985Z,31.93
2018-09-14T20:08:31.682Z,32.83
2018-09-14T20:11:00.219Z,34.40
2018-09-14T20:13:29.092Z,31.93
2018-09-14T20:15:57.759Z,23.17
2018-09-14T20:18:27.225Z,19.13
2018-09-14T20:20:55.700Z,22.43
2018-09-14T20:23:24.239Z,21.00
2018-09-14T20:25:52.753Z,19.63
2018-09-14T20:28:21.332Z,16.90
2018-09-14T20:30:50.598Z,21.47
2018-09-14T20:33:19.136Z,15.80
2018-09-14T20:35:47.699Z,21.23
2018-09-14T20:38:16.333Z,12.97
2018-09-14T20:40:44.967Z,21.10
2018-09-14T20:43:13.680Z,20.13
2018-09-14T20:45:42.360Z,20.23
2018-09-14T20:48:11.197Z,24.17
2018-09-14T20:50:40.399Z,21.23
2018-09-14T20:53:09.114Z,21.67
2018-09-14T20:55:37.909Z,23.40
2018-09-14T20:58:06.431Z,17.60
2018-09-14T21:00:35.055Z,16.37
2018-09-14T21:03:04.191Z,16.63
2018-09-14T21:05:33.438Z,17.83
2018-09-14T21:08:02.970Z,17.80
2018-09-14T21:10:31.744Z,17.17
2018-09-14T21:13:00.967Z,22.13
2018-09-14T21:15:29.569Z,14.27
2018-09-14T21:17:58.126Z,16.70
2018-09-14T21:20:26.711Z,16.60
2018-09-14T21:22:55.333Z,19.23
2018-09-14T21:25:23.911Z,21.10
2018-09-14T21:27:52.503Z,16.63
2018-09-14T21:30:21.269Z,15.20
2018-09-14T21:32:50.010Z,15.90
2018-09-14T21:35:18.573Z,16.37
2018-09-14T21:37:47.164Z,17.60
2018-09-14T21:40:15.854Z,15.93
2018-09-14T21:42:45.195Z,16.90
2018-09-14T21:45:13.734Z,18.87
2018-09-14T21:47:42.367Z,18.83
2018-09-14T21:50:10.910Z,23.50
2018-09-14T21:52:39.422Z,18.73
2018-09-14T21:55:08.546Z,19.70
2018-09-14T21:57:37.326Z,14.90
2018-09-14T22:00:12.263Z,17.03
2018-09-14T22:02:41.517Z,21.57
2018-09-14T22:05:10.135Z,16.20
2018-09-14T22:07:39.264Z,25.87
2018-09-14T22:10:08.203Z,21.63
2018-09-14T22:12:37.418Z,16.23
2018-09-14T22:15:05.978Z,15.63
2018-09-14T22:17:35.266Z,16.73
2018-09-14T22:20:03.932Z,15.97
2018-09-14T22:22:32.634Z,14.87
2018-09-14T22:25:01.207Z,34.70
2018-09-14T22:27:30.599Z,14.60
2018-09-14T22:30:00.032Z,21.07
2018-09-14T22:32:28.738Z,17.70
2018-09-14T22:34:57.427Z,21.33
2018-09-14T22:37:26.779Z,15.53
2018-09-14T22:39:55.568Z,19.80
2018-09-14T22:42:24.811Z,19.40
2018-09-14T22:44:53.769Z,16.40
2018-09-14T22:47:23.418Z,22.40
2018-09-14T22:49:51.920Z,17.17
2018-09-14T22:52:20.567Z,16.23
2018-09-14T22:54:49.028Z,15.37
2018-09-14T22:57:17.670Z,17.70
2018-09-14T22:59:46.400Z,20.97
2018-09-14T23:02:14.984Z,15.67
2018-09-14T23:04:43.495Z,15.27
2018-09-14T23:07:12.051Z,19.10
2018-09-14T23:09:40.535Z,24.93
2018-09-14T23:12:09.105Z,18.93
2018-09-14T23:14:38.941Z,21.63
2018-09-14T23:17:07.894Z,18.63
2018-09-14T23:19:36.404Z,27.20
2018-09-14T23:22:05.022Z,19.43
2018-09-14T23:24:33.564Z,22.57
2018-09-14T23:27:02.285Z,20.40
2018-09-14T23:29:30.774Z,20.53
2018-09-14T23:31:59.305Z,22.43
2018-09-14T23:34:27.819Z,20.97
2018-09-14T23:36:56.352Z,21.33
2018-09-14T23:39:24.861Z,18.70
2018-09-14T23:41:53.629Z,25.33
2018-09-14T23:44:22.131Z,25.93
2018-09-14T23:46:50.827Z,21.93
2018-09-14T23:49:19.496Z,25.87
2018-09-14T23:51:48.278Z,20.37
2018-09-14T23:54:16.828Z,21.33
2018-09-14T23:56:45.478Z,22.00
2018-09-14T23:59:14.045Z,27.63
